sensor_id;sensor_type;location;lat;lon;timestamp;temperature;humidity
64563;SHT31;50961;48.184;11.636;2022-10-10T03:27:15;10.25;98.49
64563;SHT31;50961;48.184;11.636;2022-10-10T03:29:41;10.27;98.48
64563;SHT31;50961;48.184;11.636;2022-10-10T03:32:06;10.27;98.11
64563;SHT31;50961;48.184;11.636;2022-10-10T03:34:31;10.31;98.55
64563;SHT31;50961;48.184;11.636;2022-10-10T03:36:57;10.34;98.08
64563;SHT31;50961;48.184;11.636;2022-10-10T03:39:22;10.42;98.45
64563;SHT31;50961;48.184;11.636;2022-10-10T03:41:47;10.44;98.35
64563;SHT31;50961;48.184;11.636;2022-10-10T03:44:14;10.46;98.01
64563;SHT31;50961;48.184;11.636;2022-10-10T03:46:40;10.46;97.92
64563;SHT31;50961;48.184;11.636;2022-10-10T03:49:05;10.55;97.71
64563;SHT31;50961;48.184;11.636;2022-10-10T03:51:30;10.52;97.25
64563;SHT31;50961;48.184;11.636;2022-10-10T03:53:56;10.59;97.49
64563;SHT31;50961;48.184;11.636;2022-10-10T03:56:21;10.54;97.45
64563;SHT31;50961;48.184;11.636;2022-10-10T03:58:46;10.58;97.44
64563;SHT31;50961;48.184;11.636;2022-10-10T04:01:12;10.71;96.64
64563;SHT31;50961;48.184;11.636;2022-10-10T04:03:37;10.66;96.78
64563;SHT31;50961;48.184;11.636;2022-10-10T04:06:03;10.71;96.97
64563;SHT31;50961;48.184;11.636;2022-10-10T04:08:28;10.68;96.52
64563;SHT31;50961;48.184;11.636;2022-10-10T04:10:55;10.71;96.73
64563;SHT31;50961;48.184;11.636;2022-10-10T04:13:21;10.69;96.72
64563;SHT31;50961;48.184;11.636;2022-10-10T04:15:51;10.63;97.11
64563;SHT31;50961;48.184;11.636;2022-10-10T04:18:18;10.62;97.32
64563;SHT31;50961;48.184;11.636;2022-10-10T04:20:43;10.65;97.17
64563;SHT31;50961;48.184;11.636;2022-10-10T04:23:09;10.61;97.58
64563;SHT31;50961;48.184;11.636;2022-10-10T04:25:34;10.56;97.96
64563;SHT31;50961;48.184;11.636;2022-10-10T04:27:59;10.56;98.02
64563;SHT31;50961;48.184;11.636;2022-10-10T04:30:26;10.59;98.24
64563;SHT31;50961;48.184;11.636;2022-10-10T04:32:51;10.61;98.15
64563;SHT31;50961;48.184;11.636;2022-10-10T04:35:16;10.65;98.23
64563;SHT31;50961;48.184;11.636;2022-10-10T04:37:42;10.63;97.90
64563;SHT31;50961;48.184;11.636;2022-10-10T04:40:08;10.68;97.71
64563;SHT31;50961;48.184;11.636;2022-10-10T04:42:33;10.73;97.32
64563;SHT31;50961;48.184;11.636;2022-10-10T04:44:58;10.73;97.49
64563;SHT31;50961;48.184;11.636;2022-10-10T04:47:24;10.73;97.44
64563;SHT31;50961;48.184;11.636;2022-10-10T04:49:49;10.84;96.83
64563;SHT31;50961;48.184;11.636;2022-10-10T04:52:14;10.86;96.33
64563;SHT31;50961;48.184;11.636;2022-10-10T04:54:40;10.86;97.02
64563;SHT31;50961;48.184;11.636;2022-10-10T04:57:06;10.80;97.11
64563;SHT31;50961;48.184;11.636;2022-10-10T04:59:31;10.73;97.78
64563;SHT31;50961;48.184;11.636;2022-10-10T05:01:57;10.72;96.94
64563;SHT31;50961;48.184;11.636;2022-10-10T05:04:22;10.73;97.21
64563;SHT31;50961;48.184;11.636;2022-10-10T05:06:47;10.69;97.54
64563;SHT31;50961;48.184;11.636;2022-10-10T05:09:13;10.75;97.51
64563;SHT31;50961;48.184;11.636;2022-10-10T05:11:38;10.71;97.49
64563;SHT31;50961;48.184;11.636;2022-10-10T05:14:03;10.72;97.25
64563;SHT31;50961;48.184;11.636;2022-10-10T05:16:29;10.65;96.67
64563;SHT31;50961;48.184;11.636;2022-10-10T05:18:54;10.65;96.68
64563;SHT31;50961;48.184;11.636;2022-10-10T05:21:22;10.75;96.30
64563;SHT31;50961;48.184;11.636;2022-10-10T05:23:47;10.73;96.59
64563;SHT31;50961;48.184;11.636;2022-10-10T05:26:12;10.71;96.78
64563;SHT31;50961;48.184;11.636;2022-10-10T05:28:38;10.65;97.00
64563;SHT31;50961;48.184;11.636;2022-10-10T05:31:04;10.65;97.30
64563;SHT31;50961;48.184;11.636;2022-10-10T05:33:29;10.61;97.07
64563;SHT31;50961;48.184;11.636;2022-10-10T05:36:06;10.56;97.81
64563;SHT31;50961;48.184;11.636;2022-10-10T05:38:33;10.59;97.43
64563;SHT31;50961;48.184;11.636;2022-10-10T05:40:58;10.59;97.84
64563;SHT31;50961;48.184;11.636;2022-10-10T05:43:24;10.59;97.91
64563;SHT31;50961;48.184;11.636;2022-10-10T05:45:49;10.56;98.02
64563;SHT31;50961;48.184;11.636;2022-10-10T05:48:14;10.59;98.01
64563;SHT31;50961;48.184;11.636;2022-10-10T05:50:45;10.56;97.68
64563;SHT31;50961;48.184;11.636;2022-10-10T05:53:12;10.56;97.85
64563;SHT31;50961;48.184;11.636;2022-10-10T05:55:37;10.58;97.84
64563;SHT31;50961;48.184;11.636;2022-10-10T05:58:02;10.58;97.91
64563;SHT31;50961;48.184;11.636;2022-10-10T06:00:28;10.65;97.79
64563;SHT31;50961;48.184;11.636;2022-10-10T06:02:53;10.62;97.27
